Time;durP1;ratioP1;P1;durP2;ratioP2;P2;SDS_P1;SDS_P2;PMS_P1;PMS_P2;Temp;Humidity;BMP_temperature;BMP_pressure;BME280_temperature;BME280_humidity;BME280_pressure;Samples;Min_cycle;Max_cycle;Signal;HPM_P1;HPM_P2
2022/09/22 00:01:08;;;;;;;16.02;12.23;;;;;;;27.65;82.52;98070.66;4986402;28;20429;-69
2022/09/22 00:04:00;;;;;;;18.75;12.73;;;;;;;27.81;82.70;98072.75;4987548;28;20073;-69
2022/09/22 00:06:56;;;;;;;20.25;13.27;;;;;;;27.85;82.04;98079.97;4987609;28;20525;-69
2022/09/22 00:09:31;;;;;;;19.50;12.82;;;;;;;27.75;81.99;98082.38;4987293;28;20038;-69
2022/09/22 00:12:21;;;;;;;16.67;12.27;;;;;;;27.79;82.57;98084.09;4986995;28;20751;-70
2022/09/22 00:15:11;;;;;;;23.38;12.65;;;;;;;27.80;82.49;98094.00;4986652;28;20101;-69
2022/09/22 00:17:46;;;;;;;15.82;12.00;;;;;;;27.82;82.45;98093.63;4987706;28;20046;-68
2022/09/22 00:20:38;;;;;;;16.88;12.45;;;;;;;27.84;82.43;98094.91;4986464;28;20046;-68
2022/09/22 00:23:20;;;;;;;18.45;13.50;;;;;;;27.68;82.38;98097.53;4968876;28;20066;-69
2022/09/22 00:26:21;;;;;;;21.27;12.80;;;;;;;27.63;82.91;98106.03;4968032;28;20566;-68
2022/09/22 00:28:57;;;;;;;20.10;12.45;;;;;;;27.57;82.84;98103.81;4970065;28;20134;-68
2022/09/22 00:31:47;;;;;;;16.70;11.70;;;;;;;27.70;83.06;98108.22;4971146;28;20074;-69
2022/09/22 00:34:36;;;;;;;16.55;12.63;;;;;;;27.69;82.42;98099.16;4967948;28;20132;-70
2022/09/22 00:37:25;;;;;;;19.00;12.95;;;;;;;27.57;83.04;98103.81;4967488;28;20042;-69
2022/09/22 00:40:08;;;;;;;15.85;11.90;;;;;;;27.74;82.71;98103.63;4968041;28;20482;-68
2022/09/22 00:43:24;;;;;;;22.27;12.98;;;;;;;27.83;82.43;98107.06;4984732;28;20116;-69
2022/09/22 00:46:11;;;;;;;19.98;13.10;;;;;;;27.73;82.86;98110.28;4985764;28;20532;-68
2022/09/22 00:49:11;;;;;;;22.25;12.80;;;;;;;27.76;82.62;98115.09;4987008;28;20050;-68
2022/09/22 00:51:46;;;;;;;19.40;13.50;;;;;;;27.84;82.25;98105.94;4986996;28;20038;-68
2022/09/22 00:54:37;;;;;;;19.13;13.18;;;;;;;27.77;82.02;98119.50;4982250;28;20140;-69
2022/09/22 00:57:26;;;;;;;18.35;12.70;;;;;;;27.63;82.46;98121.75;4986735;28;20054;-69
2022/09/22 01:00:22;;;;;;;22.13;13.45;;;;;;;27.60;82.66;98123.25;4986880;28;20057;-69
2022/09/22 01:02:59;;;;;;;18.20;14.25;;;;;;;27.71;82.98;98134.66;4987044;28;20053;-69
2022/09/22 01:05:52;;;;;;;21.13;13.60;;;;;;;27.73;82.54;98137.88;4986427;28;20133;-69
2022/09/22 01:08:36;;;;;;;16.75;12.95;;;;;;;27.52;82.70;98147.00;4985076;28;20065;-69
2022/09/22 01:11:26;;;;;;;19.40;12.98;;;;;;;27.77;82.80;98147.06;4983784;28;20078;-69
2022/09/22 01:14:51;;;;;;;24.92;14.32;;;;;;;27.70;81.85;98139.34;4983951;28;20057;-69
2022/09/22 01:17:52;;;;;;;20.38;13.20;;;;;;;27.79;81.62;98136.50;4969539;28;20496;-69
2022/09/22 01:20:40;;;;;;;17.55;12.70;;;;;;;27.84;81.91;98143.72;4984325;28;20050;-69
2022/09/22 01:23:48;;;;;;;22.58;12.93;;;;;;;27.80;81.95;98149.16;4984361;28;20069;-69
2022/09/22 01:27:06;;;;;;;18.02;12.60;;;;;;;27.86;81.65;98149.69;4968167;28;20421;-69
2022/09/22 01:30:09;;;;;;;19.85;13.13;;;;;;;27.97;81.46;98152.84;4983119;28;20042;-70
2022/09/22 01:33:11;;;;;;;26.20;13.63;;;;;;;27.77;81.83;98154.53;5009898;28;20060;-70
2022/09/22 01:36:08;;;;;;;18.27;12.65;;;;;;;27.96;81.57;98157.56;5009935;28;20385;-70
2022/09/22 01:39:11;;;;;;;16.90;12.85;;;;;;;27.97;81.73;98163.88;5009994;28;20049;-70
2022/09/22 01:42:06;;;;;;;18.95;12.07;;;;;;;27.90;81.45;98165.25;4989184;28;20109;-70
2022/09/22 01:45:06;;;;;;;20.10;13.40;;;;;;;27.89;81.52;98171.91;4987597;28;20065;-70
2022/09/22 01:47:56;;;;;;;23.85;13.77;;;;;;;28.10;81.11;98174.59;4989774;28;20049;-69
2022/09/22 01:51:18;;;;;;;20.50;12.13;;;;;;;28.24;81.56;98167.94;4989952;28;20042;-70
2022/09/22 01:54:40;;;;;;;18.83;13.35;;;;;;;28.24;80.70;98173.44;4982560;28;20124;-69
2022/09/22 01:57:29;;;;;;;27.55;14.52;;;;;;;28.09;81.33;98175.75;4965774;28;20108;-70
2022/09/22 02:00:18;;;;;;;23.65;12.93;;;;;;;28.33;80.71;98181.63;4970049;28;20121;-69
2022/09/22 02:03:12;;;;;;;18.95;13.32;;;;;;;28.45;79.83;98182.44;4970572;28;20473;-69
2022/09/22 02:06:09;;;;;;;22.90;14.38;;;;;;;28.58;78.66;98185.22;4969866;28;20425;-70
2022/09/22 02:09:08;;;;;;;18.30;13.27;;;;;;;28.70;78.72;98182.44;4989400;28;20744;-70
2022/09/22 02:12:05;;;;;;;25.50;14.00;;;;;;;28.72;78.89;98193.94;4988133;28;20138;-70
2022/09/22 02:14:40;;;;;;;27.90;14.90;;;;;;;28.66;78.32;98182.34;4989425;28;20050;-70
2022/09/22 02:17:31;;;;;;;24.67;15.15;;;;;;;28.40;80.05;98187.38;4987217;28;20050;-70
2022/09/22 02:20:16;;;;;;;25.17;15.30;;;;;;;28.68;79.40;98193.84;4977509;28;20165;-69
2022/09/22 02:23:04;;;;;;;26.55;15.27;;;;;;;28.88;78.90;98191.28;4968952;28;20125;-69
2022/09/22 02:25:55;;;;;;;21.25;14.77;;;;;;;29.05;77.80;98193.75;4985967;28;20045;-69
2022/09/22 02:28:51;;;;;;;27.95;14.15;;;;;;;29.05;77.91;98190.19;4990072;28;20050;-70
2022/09/22 02:31:29;;;;;;;32.67;15.80;;;;;;;28.48;79.50;98192.78;4991066;28;20042;-70
2022/09/22 02:34:25;;;;;;;21.70;15.20;;;;;;;28.64;80.13;98192.94;4988723;28;20050;-70
2022/09/22 02:37:12;;;;;;;26.45;16.55;;;;;;;28.81;79.44;98202.09;4989541;28;20046;-69
2022/09/22 02:40:38;;;;;;;23.35;15.63;;;;;;;28.89;79.32;98203.91;4989144;28;20046;-70
2022/09/22 02:43:54;;;;;;;26.48;17.05;;;;;;;29.26;78.66;98206.63;4992882;28;20065;-70
2022/09/22 02:46:48;;;;;;;27.00;17.10;;;;;;;29.08;78.46;98209.66;4989304;28;20042;-70
2022/09/22 02:49:37;;;;;;;31.65;18.15;;;;;;;29.16;77.63;98215.41;4988432;28;20104;-70
2022/09/22 02:52:29;;;;;;;28.45;17.00;;;;;;;29.44;77.43;98218.19;4988492;28;20107;-70
2022/09/22 02:55:18;;;;;;;32.67;18.60;;;;;;;29.58;76.76;98215.00;4987840;28;20050;-70
2022/09/22 02:58:07;;;;;;;30.60;18.80;;;;;;;29.75;76.22;98213.94;4989119;28;20074;-70
2022/09/22 03:00:48;;;;;;;29.35;20.08;;;;;;;29.52;76.98;98219.19;4988776;28;20050;-69
2022/09/22 03:03:38;;;;;;;30.75;18.85;;;;;;;29.77;76.16;98225.44;4988487;28;20129;-69
2022/09/22 03:06:19;;;;;;;36.92;23.45;;;;;;;29.50;75.91;98224.28;4987365;28;20054;-69
2022/09/22 03:09:09;;;;;;;36.97;23.83;;;;;;;29.71;76.16;98226.84;4988637;28;20162;-69
2022/09/22 03:11:50;;;;;;;42.60;24.98;;;;;;;29.98;75.64;98226.03;4988737;28;20046;-70
2022/09/22 03:14:40;;;;;;;43.70;24.13;;;;;;;29.89;76.18;98224.59;4987865;28;20536;-69
2022/09/22 03:17:21;;;;;;;48.78;27.13;;;;;;;29.60;76.18;98221.81;4988287;28;20077;-70
2022/09/22 03:20:11;;;;;;;41.38;25.20;;;;;;;30.10;74.11;98222.38;4988131;28;20051;-69
2022/09/22 03:22:53;;;;;;;46.22;28.58;;;;;;;29.50;75.86;98229.81;4989074;28;20034;-70
2022/09/22 03:25:43;;;;;;;44.67;27.88;;;;;;;29.77;74.34;98220.75;4988130;28;20049;-70
2022/09/22 03:28:25;;;;;;;48.17;27.60;;;;;;;30.12;74.29;98225.59;4987562;28;20124;-72
2022/09/22 03:31:14;;;;;;;50.63;28.45;;;;;;;30.24;72.06;98227.47;4988002;28;20679;-70
2022/09/22 03:33:55;;;;;;;45.40;28.45;;;;;;;30.48;72.35;98228.47;4987845;28;20361;-70
2022/09/22 03:36:45;;;;;;;49.38;27.45;;;;;;;30.41;73.10;98235.44;4987637;28;20150;-70
2022/09/22 03:39:33;;;;;;;50.70;28.75;;;;;;;30.52;72.20;98232.16;4985658;28;20054;-70
2022/09/22 03:42:23;;;;;;;48.17;27.52;;;;;;;30.43;71.96;98232.34;4987845;28;20050;-70
2022/09/22 03:45:12;;;;;;;42.33;26.77;;;;;;;30.02;72.98;98226.94;4987539;28;20113;-70
2022/09/22 03:47:54;;;;;;;42.17;26.58;;;;;;;30.69;71.69;98230.94;4987204;28;20050;-70
2022/09/22 03:50:42;;;;;;;39.97;26.30;;;;;;;30.83;72.16;98236.84;4986431;28;20046;-71
2022/09/22 03:53:25;;;;;;;46.85;29.73;;;;;;;30.84;70.43;98241.22;4981344;28;20062;-69
2022/09/22 03:56:15;;;;;;;43.88;29.65;;;;;;;31.06;70.18;98236.19;4968419;28;20058;-69
2022/09/22 03:58:58;;;;;;;48.70;29.98;;;;;;;31.22;69.59;98248.03;4968286;28;20051;-69
2022/09/22 04:01:46;;;;;;;52.05;31.23;;;;;;;31.00;70.32;98244.78;4975227;28;20081;-71
2022/09/22 04:04:29;;;;;;;62.55;36.17;;;;;;;31.23;68.66;98247.66;4975556;28;20664;-71
2022/09/22 04:07:17;;;;;;;64.05;38.13;;;;;;;31.48;67.90;98254.94;4970318;28;20106;-70
2022/09/22 04:10:07;;;;;;;63.10;40.30;;;;;;;31.70;68.54;98257.00;4967863;28;20573;-69
2022/09/22 04:13:03;;;;;;;62.65;40.95;;;;;;;31.85;69.21;98251.72;4979637;28;20446;-70
2022/09/22 04:15:38;;;;;;;72.35;45.85;;;;;;;31.81;66.64;98251.63;4987126;28;20042;-70
2022/09/22 04:18:28;;;;;;;77.50;50.90;;;;;;;31.90;66.65;98248.66;4985810;28;20105;-70
2022/09/22 04:21:12;;;;;;;87.78;55.10;;;;;;;31.41;65.94;98256.38;4987183;28;20120;-68
2022/09/22 04:24:09;;;;;;;78.85;52.50;;;;;;;32.29;64.80;98256.91;4987581;28;20533;-70
2022/09/22 04:26:45;;;;;;;91.15;55.50;;;;;;;32.56;64.63;98253.03;4985218;28;20076;-71
2022/09/22 04:30:01;;;;;;;89.30;54.13;;;;;;;32.76;62.79;98258.50;4986761;28;20108;-69
2022/09/22 04:32:50;;;;;;;84.63;51.42;;;;;;;33.03;61.42;98261.28;4986173;28;20046;-69
2022/09/22 04:35:40;;;;;;;74.60;47.70;;;;;;;33.30;61.10;98262.88;4987628;28;20050;-69
2022/09/22 04:38:35;;;;;;;86.75;53.42;;;;;;;33.35;60.60;98259.78;4987947;28;20385;-71
2022/09/22 04:41:10;;;;;;;75.25;47.90;;;;;;;33.44;60.83;98261.47;4986386;28;20104;-70
2022/09/22 04:44:05;;;;;;;84.35;53.30;;;;;;;33.48;58.25;98256.78;4985044;28;20053;-69
2022/09/22 04:46:44;;;;;;;83.53;53.70;;;;;;;33.77;56.88;98257.16;4984611;28;20057;-70
2022/09/22 04:49:40;;;;;;;76.03;49.75;;;;;;;33.68;60.43;98254.66;4986103;28;20042;-70
2022/09/22 04:52:16;;;;;;;77.63;47.05;;;;;;;33.73;59.11;98255.09;4985843;28;20068;-70
2022/09/22 04:55:12;;;;;;;76.72;47.85;;;;;;;34.14;57.61;98263.47;4985588;28;20046;-66
2022/09/22 04:57:52;;;;;;;73.32;45.85;;;;;;;34.02;59.31;98258.19;4985235;28;20050;-68
2022/09/22 05:00:41;;;;;;;65.50;43.42;;;;;;;33.27;57.07;98258.09;4986115;28;20133;-68
2022/09/22 05:03:30;;;;;;;60.55;39.33;;;;;;;34.32;55.11;98260.13;4986411;28;20070;-70
2022/09/22 05:06:11;;;;;;;51.80;31.60;;;;;;;34.26;55.84;98259.66;4970238;28;20046;-67
2022/09/22 05:09:02;;;;;;;51.50;28.90;;;;;;;34.20;55.98;98255.59;4984957;28;20129;-68
2022/09/22 05:11:44;;;;;;;47.17;27.80;;;;;;;35.18;52.46;98257.19;4980960;28;20050;-70
2022/09/22 05:14:48;;;;;;;57.55;34.75;;;;;;;34.14;53.94;98257.91;4966695;28;20485;-69
2022/09/22 05:17:37;;;;;;;54.83;34.85;;;;;;;34.05;54.67;98256.63;4966729;28;20066;-69
2022/09/22 05:20:28;;;;;;;46.40;28.98;;;;;;;33.61;54.89;98257.31;4979846;28;20054;-69
2022/09/22 05:23:10;;;;;;;41.00;26.92;;;;;;;34.17;56.30;98255.59;4965832;28;20054;-69
2022/09/22 05:25:59;;;;;;;40.20;24.63;;;;;;;34.99;54.05;98247.91;4952644;28;20370;-69
2022/09/22 05:28:41;;;;;;;35.97;24.15;;;;;;;35.34;52.53;98257.69;4986317;28;20046;-69
2022/09/22 05:31:31;;;;;;;44.42;23.23;;;;;;;35.95;51.78;98254.34;4981988;28;20053;-73
2022/09/22 05:34:13;;;;;;;41.20;25.70;;;;;;;35.82;49.22;98256.72;4981710;28;20157;-75
2022/09/22 05:37:03;;;;;;;47.95;29.05;;;;;;;35.64;53.57;98254.63;4971393;28;20074;-76
2022/09/22 05:39:45;;;;;;;38.60;28.38;;;;;;;35.90;51.22;98244.34;4965869;28;20491;-76
2022/09/22 05:42:34;;;;;;;43.28;25.70;;;;;;;36.26;52.81;98250.03;4981414;28;20070;-71
2022/09/22 05:45:17;;;;;;;38.42;24.15;;;;;;;35.61;52.81;98254.63;4981174;28;20057;-69
2022/09/22 05:48:24;;;;;;;41.20;26.48;;;;;;;36.01;52.89;98239.59;4979040;28;20056;-69
2022/09/22 05:51:10;;;;;;;42.20;25.58;;;;;;;36.24;50.83;98232.88;4982989;28;20080;-73
2022/09/22 05:54:00;;;;;;;40.58;24.60;;;;;;;36.05;50.42;98234.03;4982219;28;20050;-72
2022/09/22 05:56:41;;;;;;;35.15;24.85;;;;;;;35.77;50.89;98231.97;4982826;28;20057;-73
2022/09/22 05:59:31;;;;;;;43.30;25.95;;;;;;;35.94;51.26;98228.41;4982251;28;20046;-72
2022/09/22 06:02:20;;;;;;;42.55;26.58;;;;;;;35.77;51.54;98240.34;4981657;28;20555;-70
2022/09/22 06:05:07;;;;;;;38.15;27.05;;;;;;;35.97;52.91;98233.22;4986252;28;20729;-72
2022/09/22 06:08:05;;;;;;;49.45;25.10;;;;;;;35.31;51.33;98227.78;4965615;28;20101;-72
2022/09/22 06:10:50;;;;;;;39.67;26.13;;;;;;;35.68;51.05;98221.97;4971653;28;20061;-72
2022/09/22 06:13:38;;;;;;;37.30;22.77;;;;;;;35.57;49.18;98221.13;4968164;28;20441;-73
2022/09/22 06:16:21;;;;;;;29.33;18.13;;;;;;;35.97;48.67;98219.25;4970826;28;20059;-72
2022/09/22 06:19:09;;;;;;;29.08;17.33;;;;;;;35.96;51.89;98212.09;4987865;28;20308;-73
2022/09/22 06:21:59;;;;;;;26.90;19.38;;;;;;;35.93;49.00;98215.66;4988356;28;20109;-72
2022/09/22 06:24:47;;;;;;;29.63;20.25;;;;;;;35.51;50.97;98205.94;4974081;28;20073;-74
2022/09/22 06:27:29;;;;;;;29.48;16.92;;;;;;;35.83;50.15;98211.66;4988460;28;20054;-74
2022/09/22 06:30:25;;;;;;;31.35;17.55;;;;;;;35.55;49.48;98206.75;4988579;28;20108;-74
2022/09/22 06:33:00;;;;;;;25.45;16.15;;;;;;;35.54;51.29;98201.56;4989239;28;20620;-74
2022/09/22 06:35:49;;;;;;;28.08;17.73;;;;;;;35.57;51.20;98198.78;4988191;28;20757;-73
2022/09/22 06:38:32;;;;;;;29.65;17.63;;;;;;;35.72;52.21;98204.44;4988758;28;20046;-74
2022/09/22 06:41:20;;;;;;;26.83;16.75;;;;;;;36.13;51.51;98199.31;4989750;28;20074;-74
2022/09/22 06:44:11;;;;;;;24.83;15.35;;;;;;;36.31;53.73;98202.16;4987931;28;20046;-75
2022/09/22 06:47:10;;;;;;;25.27;14.13;;;;;;;35.83;49.31;98199.69;4989617;28;20049;-73
2022/09/22 06:49:46;;;;;;;17.77;11.80;;;;;;;35.92;49.57;98202.09;4989087;28;20116;-72
2022/09/22 06:52:38;;;;;;;21.52;12.98;;;;;;;35.64;50.14;98198.81;4974193;28;20112;-73
2022/09/22 06:55:21;;;;;;;22.33;12.35;;;;;;;35.94;52.85;98192.09;4988874;28;20042;-75
2022/09/22 06:58:10;;;;;;;27.27;12.93;;;;;;;35.98;52.25;98189.31;4980566;28;20078;-74
2022/09/22 07:00:53;;;;;;;20.60;10.95;;;;;;;35.95;49.73;98187.34;4970209;28;20054;-73
2022/09/22 07:03:45;;;;;;;17.50;10.55;;;;;;;36.02;53.68;98176.16;5008870;28;20046;-74
2022/09/22 07:06:36;;;;;;;15.70;9.45;;;;;;;36.35;49.49;98172.22;5008050;28;20054;-74
2022/09/22 07:09:24;;;;;;;12.73;7.38;;;;;;;35.98;49.14;98166.97;5008366;28;20050;-74
2022/09/22 07:12:14;;;;;;;11.20;8.02;;;;;;;35.76;51.02;98171.75;5008670;28;20361;-74
2022/09/22 07:14:56;;;;;;;15.77;8.05;;;;;;;35.79;49.65;98166.19;5008780;28;20107;-73
2022/09/22 07:17:46;;;;;;;17.90;9.98;;;;;;;36.08;47.97;98169.00;5004702;28;20050;-74
2022/09/22 07:20:29;;;;;;;15.75;7.68;;;;;;;36.00;48.29;98171.00;5006784;28;20137;-74
2022/09/22 07:23:19;;;;;;;12.05;7.65;;;;;;;35.85;51.69;98161.00;5007103;28;20049;-75
2022/09/22 07:26:05;;;;;;;11.65;7.43;;;;;;;35.98;49.69;98153.84;4989240;28;20134;-74
2022/09/22 07:28:59;;;;;;;16.15;7.60;;;;;;;35.86;51.25;98148.63;4976820;28;20458;-74
2022/09/22 07:31:41;;;;;;;16.65;8.18;;;;;;;36.10;50.40;98143.47;5003039;28;20046;-75
2022/09/22 07:34:32;;;;;;;12.27;6.97;;;;;;;36.16;47.86;98144.66;5006207;28;20077;-75
2022/09/22 07:37:14;;;;;;;19.17;7.60;;;;;;;36.24;49.04;98135.88;5006217;28;20050;-72
2022/09/22 07:40:03;;;;;;;10.30;7.22;;;;;;;36.21;47.61;98133.09;5005806;28;20112;-73
2022/09/22 07:42:49;;;;;;;12.43;7.30;;;;;;;35.54;49.35;98138.19;4999762;28;20649;-73
2022/09/22 07:45:38;;;;;;;11.88;7.70;;;;;;;36.00;50.59;98129.09;5004018;28;20634;-72
2022/09/22 07:51:32;;;;;;;9.50;6.82;;;;;;;35.70;50.54;98123.09;5005414;28;20069;-73
2022/09/22 07:54:15;;;;;;;10.07;7.30;;;;;;;35.55;49.09;98114.66;4973443;28;20081;-73
2022/09/22 07:57:07;;;;;;;16.10;7.00;;;;;;;35.65;49.18;98116.66;5005509;28;20513;-73
2022/09/22 07:59:49;;;;;;;15.50;6.88;;;;;;;35.45;49.37;98118.22;5005539;28;20090;-72
2022/09/22 08:02:45;;;;;;;13.00;6.60;;;;;;;35.51;48.57;98105.47;5004213;28;20054;-72
2022/09/22 08:05:28;;;;;;;12.15;6.80;;;;;;;35.32;49.93;98094.69;4987799;28;20836;-72
2022/09/22 08:08:18;;;;;;;10.63;6.57;;;;;;;34.79;49.23;98094.06;5005455;28;20140;-73
2022/09/22 08:11:14;;;;;;;17.15;7.63;;;;;;;35.45;49.31;98090.34;5005731;28;20053;-73
2022/09/22 08:14:13;;;;;;;11.18;7.45;;;;;;;35.59;49.08;98081.97;4988472;28;20127;-73
2022/09/22 08:17:11;;;;;;;11.60;7.65;;;;;;;35.86;51.17;98071.22;5000097;28;20796;-72
2022/09/22 08:19:46;;;;;;;12.32;7.93;;;;;;;36.02;51.94;98064.44;4980595;28;20046;-73
2022/09/22 08:22:35;;;;;;;13.93;9.23;;;;;;;35.70;48.78;98061.69;4987036;28;20144;-74
2022/09/22 08:25:17;;;;;;;11.23;8.63;;;;;;;35.69;49.99;98063.66;4984958;28;20460;-73
2022/09/22 08:28:12;;;;;;;17.05;8.93;;;;;;;35.77;50.51;98056.91;4980741;28;20054;-73
2022/09/22 08:31:01;;;;;;;11.30;8.88;;;;;;;35.89;49.71;98047.31;4969868;28;20050;-73
2022/09/22 08:33:54;;;;;;;11.70;8.68;;;;;;;35.71;53.03;98047.31;4967170;28;20142;-73
2022/09/22 08:36:37;;;;;;;17.55;9.80;;;;;;;35.65;48.76;98044.09;4976056;28;20101;-73
2022/09/22 08:39:26;;;;;;;16.63;9.48;;;;;;;35.55;51.21;98039.31;4986378;28;20112;-73
2022/09/22 08:42:08;;;;;;;13.80;9.13;;;;;;;35.85;49.78;98032.56;4986155;28;20074;-74
2022/09/22 08:45:27;;;;;;;14.07;9.80;;;;;;;35.74;48.75;98020.59;4984710;28;20101;-74
2022/09/22 08:51:53;;;;;;;20.17;9.90;;;;;;;35.44;50.00;98016.16;4987013;28;20112;-73
2022/09/22 08:54:37;;;;;;;21.52;10.50;;;;;;;35.09;49.48;98009.34;4985547;28;20054;-74
2022/09/22 08:57:40;;;;;;;13.90;10.93;;;;;;;35.64;48.33;98008.22;4986457;28;20050;-73
2022/09/22 09:00:24;;;;;;;16.95;11.00;;;;;;;35.74;48.61;98001.06;4986783;28;20077;-73
2022/09/22 09:03:40;;;;;;;15.40;10.07;;;;;;;35.90;48.59;97998.63;4986567;28;20050;-74
2022/09/22 09:07:02;;;;;;;18.70;10.10;;;;;;;35.76;48.02;97988.28;4986273;28;20128;-73
2022/09/22 09:10:14;;;;;;;17.08;10.23;;;;;;;35.47;51.28;97984.69;4986695;28;20112;-73
2022/09/22 09:13:25;;;;;;;17.85;9.65;;;;;;;35.54;49.10;97986.69;4981836;28;20120;-74
2022/09/22 09:16:26;;;;;;;13.63;9.38;;;;;;;35.18;48.99;97970.72;4985541;28;20054;-73
2022/09/22 09:19:47;;;;;;;12.82;9.88;;;;;;;35.23;50.48;97966.75;4985013;28;20061;-73
2022/09/22 09:22:46;;;;;;;12.15;10.10;;;;;;;35.04;53.76;97965.88;5025994;28;20131;-73
2022/09/22 09:25:42;;;;;;;16.63;10.23;;;;;;;35.02;54.63;97956.31;4986137;28;20150;-72
2022/09/22 09:28:45;;;;;;;12.65;10.57;;;;;;;35.05;51.45;97955.53;4989493;28;20107;-72
2022/09/22 09:31:27;;;;;;;15.50;10.02;;;;;;;35.19;53.17;97944.41;5005969;28;20054;-73
2022/09/22 09:34:19;;;;;;;14.50;10.40;;;;;;;34.85;50.64;97950.34;4987469;28;20073;-72
2022/09/22 09:37:18;;;;;;;18.33;10.25;;;;;;;34.86;50.62;97948.34;4986415;28;20105;-72
2022/09/22 09:40:15;;;;;;;14.63;10.10;;;;;;;34.90;52.28;97944.34;4971684;28;21010;-72
2022/09/22 09:43:09;;;;;;;22.20;10.48;;;;;;;34.70;54.27;97938.34;4986517;28;20109;-73
2022/09/22 09:46:18;;;;;;;14.95;10.60;;;;;;;34.52;55.44;97941.03;4981600;28;20104;-72
2022/09/22 09:49:22;;;;;;;24.42;10.63;;;;;;;34.55;54.82;97938.66;4990626;28;20054;-73
2022/09/22 09:52:19;;;;;;;;;;;;;;;34.76;53.93;97926.81;4990734;28;20060;-71
2022/09/22 09:54:54;;;;;;;16.27;10.23;;;;;;;34.59;54.11;97920.00;4990359;28;19922;-73
2022/09/22 10:00:29;;;;;;;67.32;12.73;;;;;;;34.87;52.97;97917.28;4988756;28;20092;-73
2022/09/22 10:01:14;;;;;;;17.38;10.98;;;;;;;35.03;51.26;97913.31;4989709;28;20046;-73
2022/09/22 10:04:02;;;;;;;16.25;11.02;;;;;;;34.96;52.41;97913.31;4989081;28;20066;-73
2022/09/22 10:06:53;;;;;;;19.63;11.70;;;;;;;35.05;50.37;97911.72;5028501;28;20405;-73
2022/09/22 10:09:35;;;;;;;17.58;12.20;;;;;;;34.96;49.70;97910.53;5012984;28;20111;-72
2022/09/22 10:12:30;;;;;;;13.95;9.95;;;;;;;35.24;50.95;97906.97;5028465;28;20457;-73
2022/09/22 10:15:23;;;;;;;17.98;12.65;;;;;;;34.94;51.05;97910.13;5028650;28;20115;-72
2022/09/22 10:18:30;;;;;;;17.92;12.63;;;;;;;35.02;50.37;97906.13;5013346;28;20049;-73
2022/09/22 10:21:16;;;;;;;16.20;12.25;;;;;;;34.93;52.93;97902.94;5026289;28;20053;-72
2022/09/22 10:24:06;;;;;;;19.40;12.57;;;;;;;35.05;52.09;97903.34;4972488;28;20078;-72
2022/09/22 10:26:56;;;;;;;22.15;11.95;;;;;;;35.11;51.34;97892.59;4988216;28;20050;-73
2022/09/22 10:29:41;;;;;;;16.75;11.82;;;;;;;35.27;49.54;97895.81;4969033;28;20039;-73
2022/09/22 10:32:29;;;;;;;24.58;12.82;;;;;;;34.96;50.21;97896.56;4989507;28;20054;-73
2022/09/22 10:35:35;;;;;;;18.25;12.55;;;;;;;35.02;48.76;97892.97;4987906;28;20050;-72
2022/09/22 10:38:28;;;;;;;23.15;13.15;;;;;;;35.10;52.65;97891.00;4988743;28;20558;-72
2022/09/22 10:41:11;;;;;;;19.63;12.88;;;;;;;34.96;53.27;97883.44;4984064;28;20057;-73
2022/09/22 10:44:06;;;;;;;18.25;12.25;;;;;;;34.97;53.69;97873.88;4970625;28;20427;-72
2022/09/22 10:47:40;;;;;;;18.27;12.15;;;;;;;34.92;51.69;97884.63;4968210;28;20051;-72
2022/09/22 10:51:26;;;;;;;19.75;12.38;;;;;;;35.12;50.89;97873.88;4987818;28;20350;-72
2022/09/22 10:54:28;;;;;;;19.17;12.35;;;;;;;35.07;52.56;97872.28;4980384;28;20062;-73
2022/09/22 10:57:37;;;;;;;21.55;12.50;;;;;;;34.81;50.40;97874.25;4988723;28;20116;-72
2022/09/22 11:00:23;;;;;;;19.35;12.90;;;;;;;34.63;53.38;97876.19;4986882;28;20129;-73
2022/09/22 11:03:48;;;;;;;25.02;12.45;;;;;;;34.61;55.62;97871.03;4989047;28;20466;-74
2022/09/22 11:14:00;;;;;;;21.55;11.45;;;;;;;34.28;55.80;97880.47;4923561;28;20043;-72
2022/09/22 11:17:05;;;;;;;17.02;10.40;;;;;;;34.32;58.01;97893.22;4987776;28;20263;-69
2022/09/22 11:20:03;;;;;;;12.73;9.65;;;;;;;34.22;56.62;97899.53;4988597;28;20116;-74
2022/09/22 11:23:23;;;;;;;13.25;8.32;;;;;;;34.07;58.27;97898.69;4988771;28;20078;-72
2022/09/22 11:26:45;;;;;;;16.00;7.88;;;;;;;34.05;59.58;97901.06;4999471;28;20050;-71
2022/09/22 11:30:02;;;;;;;21.67;8.18;;;;;;;34.13;57.30;97915.81;5006160;28;20042;-71
2022/09/22 11:33:02;;;;;;;10.50;7.25;;;;;;;33.97;58.08;97913.31;4987877;28;20469;-73
2022/09/22 11:36:08;;;;;;;16.17;7.00;;;;;;;33.54;58.87;97913.06;4987986;28;20727;-71
2022/09/22 11:39:26;;;;;;;11.60;6.45;;;;;;;33.94;58.56;97923.28;5002981;28;20480;-71
2022/09/22 11:42:19;;;;;;;14.98;6.78;;;;;;;33.65;59.26;97924.28;5005284;28;20097;-68
2022/09/22 11:45:33;;;;;;;14.52;7.03;;;;;;;33.42;59.51;97927.25;5020123;28;20648;-69
2022/09/22 11:48:31;;;;;;;12.82;7.35;;;;;;;33.16;59.71;97929.03;4983584;28;20053;-70
2022/09/22 11:51:43;;;;;;;;;;;;;;;33.52;60.17;97932.13;5004501;28;20157;-70
2022/09/22 11:54:29;;;;;;;9.38;6.47;;;;;;;33.52;60.92;97929.34;5013238;28;19929;-71
2022/09/22 11:57:23;;;;;;;14.52;7.38;;;;;;;33.07;59.64;97931.31;5020407;28;20153;-71
2022/09/22 12:00:19;;;;;;;14.18;7.15;;;;;;;33.01;60.43;97927.28;5008307;28;20041;-71
2022/09/22 12:03:16;;;;;;;9.68;7.50;;;;;;;33.02;59.83;97934.44;5013878;28;20068;-71
2022/09/22 12:06:11;;;;;;;10.55;6.90;;;;;;;33.04;60.03;97927.31;5018789;28;20049;-71
2022/09/22 12:09:11;;;;;;;14.23;7.53;;;;;;;32.88;59.19;97918.44;5016592;28;20120;-71
2022/09/22 12:11:46;;;;;;;10.77;7.03;;;;;;;33.08;58.67;97932.94;5019495;28;20124;-70
2022/09/22 12:14:43;;;;;;;12.35;6.40;;;;;;;33.16;58.42;97952.06;5011968;28;20095;-69
2022/09/22 12:17:26;;;;;;;14.57;7.10;;;;;;;32.69;58.08;97961.09;5006218;28;20153;-71
2022/09/22 12:20:37;;;;;;;13.20;6.57;;;;;;;32.82;57.95;97956.88;5019425;28;20115;-70
2022/09/22 12:23:23;;;;;;;10.05;6.35;;;;;;;32.84;57.97;97957.28;5006061;28;20049;-71
2022/09/22 12:26:23;;;;;;;8.50;5.88;;;;;;;33.08;58.42;97960.72;4986439;28;20104;-70
2022/09/22 12:29:08;;;;;;;14.23;7.38;;;;;;;33.05;60.75;97951.16;5008218;28;20058;-70
2022/09/22 12:31:58;;;;;;;17.45;7.82;;;;;;;32.45;64.85;97937.41;5007717;28;20116;-69
2022/09/22 12:34:45;;;;;;;10.48;8.25;;;;;;;32.17;67.42;97936.66;4998345;28;20134;-69
2022/09/22 12:37:38;;;;;;;15.43;7.87;;;;;;;31.71;70.36;97956.19;4976526;28;20132;-70
2022/09/22 12:40:40;;;;;;;14.13;8.30;;;;;;;31.68;72.20;97965.28;5006597;28;20061;-70
2022/09/22 12:43:24;;;;;;;12.80;7.53;;;;;;;31.53;72.25;97969.00;5006683;28;20065;-70
2022/09/22 12:46:32;;;;;;;15.00;7.95;;;;;;;31.32;74.43;97967.44;4645641;28;10000346;-70
2022/09/22 12:49:22;;;;;;;16.23;8.23;;;;;;;31.23;74.21;97958.56;4984181;28;20046;-69
2022/09/22 12:52:42;;;;;;;10.93;8.00;;;;;;;31.13;75.24;97961.97;4984304;28;20120;-70
2022/09/22 12:55:27;;;;;;;;;;;;;;;31.13;76.12;97970.28;5013359;28;20058;-69
2022/09/22 12:58:25;;;;;;;12.85;8.13;;;;;;;31.00;76.22;97973.22;5003175;28;19925;-69
2022/09/22 13:01:31;;;;;;;11.40;7.82;;;;;;;31.07;74.71;97975.34;4988182;28;20053;-69
2022/09/22 13:04:23;;;;;;;8.98;7.97;;;;;;;30.74;74.99;97973.09;5011196;28;20053;-70
2022/09/22 13:07:40;;;;;;;14.32;10.43;;;;;;;30.90;74.78;97973.00;5019137;28;20132;-71
2022/09/22 13:10:30;;;;;;;12.77;10.18;;;;;;;31.03;74.29;97972.50;5018645;28;20139;-70
2022/09/22 13:13:42;;;;;;;11.95;9.63;;;;;;;31.04;75.08;97970.50;5008087;28;20061;-71
2022/09/22 13:16:25;;;;;;;13.40;9.02;;;;;;;31.15;74.44;97973.50;4985292;28;20136;-72
2022/09/22 13:19:22;;;;;;;16.95;9.45;;;;;;;31.08;73.23;97965.03;5005167;28;20054;-71
2022/09/22 13:22:16;;;;;;;13.70;8.98;;;;;;;31.14;74.65;97967.13;4973463;28;20123;-71
2022/09/22 13:25:34;;;;;;;14.40;9.32;;;;;;;31.02;74.15;97973.66;5004823;28;20104;-72
2022/09/22 13:28:24;;;;;;;12.65;8.68;;;;;;;30.99;73.94;97979.13;4993056;28;20548;-71
2022/09/22 13:31:24;;;;;;;15.32;8.98;;;;;;;31.17;73.12;97974.72;4985937;28;20104;-71